sensor_id;sensor_type;location;lat;lon;timestamp;pressure;altitude;pressure_sealevel;temperature;humidity
12178;BME280;6152;48.728;9.256;2023-07-09T00:00:47;97405.66;;;22.05;97.21
12178;BME280;6152;48.728;9.256;2023-07-09T00:03:21;97403.97;;;22.04;100.00
12178;BME280;6152;48.728;9.256;2023-07-09T00:05:48;97400.16;;;21.99;100.00
12178;BME280;6152;48.728;9.256;2023-07-09T00:08:29;97409.41;;;21.95;100.00
12178;BME280;6152;48.728;9.256;2023-07-09T00:10:57;97406.38;;;21.90;100.00
12178;BME280;6152;48.728;9.256;2023-07-09T00:13:25;97413.78;;;21.86;100.00
12178;BME280;6152;48.728;9.256;2023-07-09T00:16:00;97414.25;;;21.82;100.00
12178;BME280;6152;48.728;9.256;2023-07-09T00:18:27;97425.16;;;21.79;100.00
12178;BME280;6152;48.728;9.256;2023-07-09T00:20:54;97420.16;;;21.76;100.00
12178;BME280;6152;48.728;9.256;2023-07-09T00:23:20;97418.50;;;21.75;100.00
12178;BME280;6152;48.728;9.256;2023-07-09T00:25:46;97423.28;;;21.71;100.00
12178;BME280;6152;48.728;9.256;2023-07-09T00:28:17;97426.41;;;21.66;100.00
12178;BME280;6152;48.728;9.256;2023-07-09T00:30:48;97423.06;;;21.64;100.00
12178;BME280;6152;48.728;9.256;2023-07-09T00:33:15;97420.88;;;21.60;100.00
12178;BME280;6152;48.728;9.256;2023-07-09T00:35:43;97419.00;;;21.52;100.00
12178;BME280;6152;48.728;9.256;2023-07-09T00:38:19;97423.22;;;21.45;100.00
12178;BME280;6152;48.728;9.256;2023-07-09T00:43:33;97427.78;;;21.35;100.00
12178;BME280;6152;48.728;9.256;2023-07-09T00:49:00;97428.41;;;21.29;100.00
12178;BME280;6152;48.728;9.256;2023-07-09T00:51:32;97427.34;;;21.22;100.00
12178;BME280;6152;48.728;9.256;2023-07-09T00:56:46;97426.41;;;21.13;100.00
12178;BME280;6152;48.728;9.256;2023-07-09T00:59:20;97429.50;;;21.09;100.00
12178;BME280;6152;48.728;9.256;2023-07-09T01:01:47;97424.94;;;21.01;100.00
12178;BME280;6152;48.728;9.256;2023-07-09T01:04:18;97436.69;;;20.99;100.00
12178;BME280;6152;48.728;9.256;2023-07-09T01:06:52;97440.59;;;20.95;100.00
12178;BME280;6152;48.728;9.256;2023-07-09T01:09:19;97433.94;;;20.91;100.00
12178;BME280;6152;48.728;9.256;2023-07-09T01:11:45;97440.38;;;20.88;100.00
12178;BME280;6152;48.728;9.256;2023-07-09T01:14:15;97443.16;;;20.87;100.00
12178;BME280;6152;48.728;9.256;2023-07-09T01:16:49;97437.31;;;20.83;100.00
12178;BME280;6152;48.728;9.256;2023-07-09T01:19:24;97437.91;;;20.77;100.00
12178;BME280;6152;48.728;9.256;2023-07-09T01:22:00;97441.00;;;20.73;100.00
12178;BME280;6152;48.728;9.256;2023-07-09T01:25:06;97437.00;;;20.69;100.00
12178;BME280;6152;48.728;9.256;2023-07-09T01:27:35;97441.00;;;20.73;100.00
12178;BME280;6152;48.728;9.256;2023-07-09T01:32:40;97439.38;;;20.62;100.00
12178;BME280;6152;48.728;9.256;2023-07-09T01:35:13;97438.84;;;20.58;100.00
12178;BME280;6152;48.728;9.256;2023-07-09T01:37:42;97439.44;;;20.52;100.00
12178;BME280;6152;48.728;9.256;2023-07-09T01:40:11;97431.97;;;20.48;100.00
12178;BME280;6152;48.728;9.256;2023-07-09T01:42:38;97435.72;;;20.45;100.00
12178;BME280;6152;48.728;9.256;2023-07-09T01:45:06;97428.38;;;20.39;100.00
12178;BME280;6152;48.728;9.256;2023-07-09T01:47:33;97427.69;;;20.37;100.00
12178;BME280;6152;48.728;9.256;2023-07-09T01:49:59;97428.66;;;20.36;100.00
12178;BME280;6152;48.728;9.256;2023-07-09T01:52:27;97433.41;;;20.33;100.00
12178;BME280;6152;48.728;9.256;2023-07-09T01:54:54;97430.34;;;20.28;100.00
12178;BME280;6152;48.728;9.256;2023-07-09T01:57:23;97431.44;;;20.25;100.00
12178;BME280;6152;48.728;9.256;2023-07-09T01:59:51;97429.09;;;20.22;100.00
12178;BME280;6152;48.728;9.256;2023-07-09T02:02:19;97432.03;;;20.19;100.00
12178;BME280;6152;48.728;9.256;2023-07-09T02:04:50;97430.66;;;20.15;100.00
12178;BME280;6152;48.728;9.256;2023-07-09T02:07:17;97433.59;;;20.12;100.00
12178;BME280;6152;48.728;9.256;2023-07-09T02:09:43;97433.72;;;20.10;100.00
12178;BME280;6152;48.728;9.256;2023-07-09T02:12:10;97433.19;;;20.07;100.00
12178;BME280;6152;48.728;9.256;2023-07-09T02:14:38;97435.13;;;20.05;100.00
12178;BME280;6152;48.728;9.256;2023-07-09T02:17:04;97439.88;;;20.01;100.00
12178;BME280;6152;48.728;9.256;2023-07-09T02:19:31;97436.25;;;20.02;100.00
12178;BME280;6152;48.728;9.256;2023-07-09T02:21:57;97442.66;;;20.00;100.00
12178;BME280;6152;48.728;9.256;2023-07-09T02:24:24;97439.31;;;19.98;100.00
12178;BME280;6152;48.728;9.256;2023-07-09T02:26:59;97439.63;;;19.95;100.00
12178;BME280;6152;48.728;9.256;2023-07-09T02:29:26;97449.06;;;19.97;100.00
12178;BME280;6152;48.728;9.256;2023-07-09T02:31:54;97447.25;;;19.98;100.00
12178;BME280;6152;48.728;9.256;2023-07-09T02:34:21;97443.22;;;19.94;100.00
12178;BME280;6152;48.728;9.256;2023-07-09T02:36:55;97449.78;;;19.90;100.00
12178;BME280;6152;48.728;9.256;2023-07-09T02:39:22;97446.72;;;19.85;100.00
12178;BME280;6152;48.728;9.256;2023-07-09T02:41:49;97456.03;;;19.79;100.00
12178;BME280;6152;48.728;9.256;2023-07-09T02:44:17;97446.59;;;19.77;100.00
12178;BME280;6152;48.728;9.256;2023-07-09T02:46:43;97442.72;;;19.71;100.00
12178;BME280;6152;48.728;9.256;2023-07-09T02:49:11;97442.00;;;19.69;100.00
12178;BME280;6152;48.728;9.256;2023-07-09T02:51:38;97447.47;;;19.67;100.00
12178;BME280;6152;48.728;9.256;2023-07-09T02:54:05;97461.91;;;19.63;100.00
12178;BME280;6152;48.728;9.256;2023-07-09T02:56:31;97461.34;;;19.60;100.00
12178;BME280;6152;48.728;9.256;2023-07-09T02:58:58;97458.03;;;19.58;100.00
12178;BME280;6152;48.728;9.256;2023-07-09T03:01:24;97467.22;;;19.54;100.00
12178;BME280;6152;48.728;9.256;2023-07-09T03:03:53;97466.66;;;19.50;100.00
12178;BME280;6152;48.728;9.256;2023-07-09T03:06:21;97467.91;;;19.46;100.00
12178;BME280;6152;48.728;9.256;2023-07-09T03:08:47;97461.09;;;19.44;100.00
12178;BME280;6152;48.728;9.256;2023-07-09T03:11:15;97467.47;;;19.41;100.00
12178;BME280;6152;48.728;9.256;2023-07-09T03:13:42;97470.09;;;19.41;100.00
12178;BME280;6152;48.728;9.256;2023-07-09T03:16:08;97471.06;;;19.40;100.00
12178;BME280;6152;48.728;9.256;2023-07-09T03:18:34;97474.66;;;19.39;100.00
12178;BME280;6152;48.728;9.256;2023-07-09T03:21:01;97470.78;;;19.34;100.00
12178;BME280;6152;48.728;9.256;2023-07-09T03:23:27;97473.84;;;19.29;100.00
12178;BME280;6152;48.728;9.256;2023-07-09T03:25:54;97467.88;;;19.27;100.00
12178;BME280;6152;48.728;9.256;2023-07-09T03:28:20;97465.47;;;19.24;100.00
12178;BME280;6152;48.728;9.256;2023-07-09T03:30:48;97467.56;;;19.21;100.00
12178;BME280;6152;48.728;9.256;2023-07-09T03:33:16;97473.00;;;19.19;100.00
12178;BME280;6152;48.728;9.256;2023-07-09T03:35:43;97471.31;;;19.18;100.00
12178;BME280;6152;48.728;9.256;2023-07-09T03:38:10;97476.19;;;19.13;100.00
12178;BME280;6152;48.728;9.256;2023-07-09T03:40:37;97479.06;;;19.10;100.00
12178;BME280;6152;48.728;9.256;2023-07-09T03:43:08;97481.88;;;19.08;100.00
12178;BME280;6152;48.728;9.256;2023-07-09T03:45:35;97483.81;;;19.06;100.00
12178;BME280;6152;48.728;9.256;2023-07-09T03:48:02;97483.66;;;19.08;100.00
12178;BME280;6152;48.728;9.256;2023-07-09T03:50:28;97481.03;;;19.08;100.00
12178;BME280;6152;48.728;9.256;2023-07-09T03:52:54;97480.47;;;19.04;100.00
12178;BME280;6152;48.728;9.256;2023-07-09T03:55:20;97472.69;;;19.03;100.00
12178;BME280;6152;48.728;9.256;2023-07-09T03:57:47;97480.63;;;19.03;100.00
12178;BME280;6152;48.728;9.256;2023-07-09T04:00:13;97480.75;;;19.01;100.00
12178;BME280;6152;48.728;9.256;2023-07-09T04:02:40;97488.78;;;19.00;100.00
12178;BME280;6152;48.728;9.256;2023-07-09T04:05:09;97487.13;;;18.99;100.00
12178;BME280;6152;48.728;9.256;2023-07-09T04:07:35;97491.41;;;19.00;100.00
12178;BME280;6152;48.728;9.256;2023-07-09T04:10:02;97492.13;;;19.02;100.00
12178;BME280;6152;48.728;9.256;2023-07-09T04:12:28;97490.44;;;19.01;100.00
12178;BME280;6152;48.728;9.256;2023-07-09T04:14:54;97485.44;;;18.98;100.00
12178;BME280;6152;48.728;9.256;2023-07-09T04:17:20;97488.78;;;19.00;100.00
12178;BME280;6152;48.728;9.256;2023-07-09T04:19:49;97492.13;;;19.02;100.00
12178;BME280;6152;48.728;9.256;2023-07-09T04:22:16;97488.38;;;19.04;100.00
12178;BME280;6152;48.728;9.256;2023-07-09T04:24:42;97491.56;;;19.08;100.00
12178;BME280;6152;48.728;9.256;2023-07-09T04:27:08;97489.38;;;19.13;100.00
12178;BME280;6152;48.728;9.256;2023-07-09T04:29:35;97495.34;;;19.15;100.00
12178;BME280;6152;48.728;9.256;2023-07-09T04:32:02;97491.59;;;19.17;100.00
12178;BME280;6152;48.728;9.256;2023-07-09T04:34:28;97492.16;;;19.21;100.00
12178;BME280;6152;48.728;9.256;2023-07-09T04:36:55;97495.22;;;19.26;100.00
12178;BME280;6152;48.728;9.256;2023-07-09T04:39:21;97492.03;;;19.32;100.00
12178;BME280;6152;48.728;9.256;2023-07-09T04:41:47;97494.66;;;19.32;100.00
12178;BME280;6152;48.728;9.256;2023-07-09T04:44:14;97495.22;;;19.36;100.00
12178;BME280;6152;48.728;9.256;2023-07-09T04:46:40;97492.19;;;19.40;100.00
12178;BME280;6152;48.728;9.256;2023-07-09T04:49:07;97492.78;;;19.44;100.00
12178;BME280;6152;48.728;9.256;2023-07-09T04:51:33;97493.34;;;19.47;100.00
12178;BME280;6152;48.728;9.256;2023-07-09T04:53:59;97494.44;;;19.54;100.00
12178;BME280;6152;48.728;9.256;2023-07-09T04:56:30;97495.13;;;19.56;100.00
12178;BME280;6152;48.728;9.256;2023-07-09T04:58:57;97500.97;;;19.60;100.00
12178;BME280;6152;48.728;9.256;2023-07-09T05:01:23;97505.56;;;19.67;100.00
12178;BME280;6152;48.728;9.256;2023-07-09T05:03:50;97503.31;;;19.73;100.00
12178;BME280;6152;48.728;9.256;2023-07-09T05:06:16;97505.81;;;19.84;100.00
12178;BME280;6152;48.728;9.256;2023-07-09T05:08:42;97506.66;;;19.84;100.00
12178;BME280;6152;48.728;9.256;2023-07-09T05:11:09;97505.97;;;19.82;100.00
12178;BME280;6152;48.728;9.256;2023-07-09T05:13:36;97509.41;;;19.83;100.00
12178;BME280;6152;48.728;9.256;2023-07-09T05:16:03;97506.25;;;19.89;100.00
12178;BME280;6152;48.728;9.256;2023-07-09T05:18:29;97513.44;;;19.96;100.00
12178;BME280;6152;48.728;9.256;2023-07-09T05:20:55;97515.25;;;20.05;100.00
12178;BME280;6152;48.728;9.256;2023-07-09T05:23:23;97511.91;;;20.13;100.00
12178;BME280;6152;48.728;9.256;2023-07-09T05:26:00;97507.72;;;20.20;100.00
12178;BME280;6152;48.728;9.256;2023-07-09T05:28:26;97513.84;;;20.30;100.00
12178;BME280;6152;48.728;9.256;2023-07-09T05:30:53;97514.94;;;20.37;100.00
12178;BME280;6152;48.728;9.256;2023-07-09T05:33:19;97514.44;;;20.51;100.00
12178;BME280;6152;48.728;9.256;2023-07-09T05:35:46;97516.41;;;20.49;100.00
12178;BME280;6152;48.728;9.256;2023-07-09T05:38:13;97517.69;;;20.45;100.00
12178;BME280;6152;48.728;9.256;2023-07-09T05:40:40;97509.31;;;20.50;100.00
12178;BME280;6152;48.728;9.256;2023-07-09T05:43:06;97513.19;;;20.55;100.00
12178;BME280;6152;48.728;9.256;2023-07-09T05:45:32;97515.41;;;20.60;100.00
12178;BME280;6152;48.728;9.256;2023-07-09T05:48:02;97514.81;;;20.66;100.00
12178;BME280;6152;48.728;9.256;2023-07-09T05:50:29;97518.72;;;20.72;100.00
12178;BME280;6152;48.728;9.256;2023-07-09T05:52:55;97515.59;;;20.76;100.00
12178;BME280;6152;48.728;9.256;2023-07-09T05:55:21;97524.19;;;20.88;100.00
12178;BME280;6152;48.728;9.256;2023-07-09T05:57:47;97521.66;;;20.96;100.00
12178;BME280;6152;48.728;9.256;2023-07-09T06:00:13;97526.06;;;21.05;100.00
12178;BME280;6152;48.728;9.256;2023-07-09T06:02:40;97530.50;;;21.14;100.00
12178;BME280;6152;48.728;9.256;2023-07-09T06:05:06;97526.56;;;21.18;100.00
12178;BME280;6152;48.728;9.256;2023-07-09T06:07:35;97522.66;;;21.22;100.00
12178;BME280;6152;48.728;9.256;2023-07-09T06:10:01;97525.69;;;21.27;100.00
12178;BME280;6152;48.728;9.256;2023-07-09T06:12:27;97529.66;;;21.41;100.00
12178;BME280;6152;48.728;9.256;2023-07-09T06:14:53;97526.91;;;21.50;100.00
12178;BME280;6152;48.728;9.256;2023-07-09T06:17:19;97526.09;;;21.67;100.00
12178;BME280;6152;48.728;9.256;2023-07-09T06:19:45;97533.13;;;21.77;100.00
12178;BME280;6152;48.728;9.256;2023-07-09T06:22:12;97533.03;;;21.86;100.00
12178;BME280;6152;48.728;9.256;2023-07-09T06:24:38;97539.09;;;21.96;100.00
12178;BME280;6152;48.728;9.256;2023-07-09T06:27:04;97535.78;;;22.12;100.00
12178;BME280;6152;48.728;9.256;2023-07-09T06:29:30;97537.03;;;22.26;100.00
12178;BME280;6152;48.728;9.256;2023-07-09T06:31:56;97540.63;;;22.42;100.00
12178;BME280;6152;48.728;9.256;2023-07-09T06:34:23;97539.06;;;22.57;100.00
12178;BME280;6152;48.728;9.256;2023-07-09T06:36:49;97532.53;;;22.70;100.00
12178;BME280;6152;48.728;9.256;2023-07-09T06:39:15;97533.94;;;22.90;100.00
12178;BME280;6152;48.728;9.256;2023-07-09T06:41:42;97531.72;;;23.11;100.00
12178;BME280;6152;48.728;9.256;2023-07-09T06:44:09;97535.38;;;23.18;100.00
12178;BME280;6152;48.728;9.256;2023-07-09T06:46:35;97536.13;;;23.36;100.00
12178;BME280;6152;48.728;9.256;2023-07-09T06:49:02;97539.31;;;23.48;100.00
12178;BME280;6152;48.728;9.256;2023-07-09T06:51:31;97533.56;;;23.77;100.00
12178;BME280;6152;48.728;9.256;2023-07-09T06:53:57;97530.59;;;23.96;100.00
12178;BME280;6152;48.728;9.256;2023-07-09T06:56:24;97535.94;;;24.20;100.00
12178;BME280;6152;48.728;9.256;2023-07-09T06:58:50;97534.91;;;24.21;100.00
12178;BME280;6152;48.728;9.256;2023-07-09T07:01:16;97537.88;;;24.34;100.00
12178;BME280;6152;48.728;9.256;2023-07-09T07:03:42;97538.91;;;24.33;100.00
12178;BME280;6152;48.728;9.256;2023-07-09T07:06:08;97542.22;;;24.43;100.00
12178;BME280;6152;48.728;9.256;2023-07-09T07:08:35;97528.84;;;24.68;100.00
12178;BME280;6152;48.728;9.256;2023-07-09T07:11:03;97533.78;;;24.95;100.00
12178;BME280;6152;48.728;9.256;2023-07-09T07:13:41;97538.19;;;25.19;99.12
12178;BME280;6152;48.728;9.256;2023-07-09T07:16:09;97534.69;;;25.49;93.73
12178;BME280;6152;48.728;9.256;2023-07-09T07:18:36;97533.19;;;25.54;93.24
12178;BME280;6152;48.728;9.256;2023-07-09T07:21:03;97536.50;;;25.79;91.16
12178;BME280;6152;48.728;9.256;2023-07-09T07:23:30;97531.47;;;26.07;88.27
12178;BME280;6152;48.728;9.256;2023-07-09T07:25:56;97537.06;;;26.20;85.32
12178;BME280;6152;48.728;9.256;2023-07-09T07:28:23;97534.34;;;26.43;82.83
12178;BME280;6152;48.728;9.256;2023-07-09T07:30:59;97529.88;;;26.58;80.09
12178;BME280;6152;48.728;9.256;2023-07-09T07:33:26;97531.22;;;26.69;78.85
12178;BME280;6152;48.728;9.256;2023-07-09T07:35:52;97531.19;;;27.06;76.50
12178;BME280;6152;48.728;9.256;2023-07-09T07:38:18;97524.94;;;27.35;73.12
12178;BME280;6152;48.728;9.256;2023-07-09T07:40:45;97530.06;;;27.44;72.34
12178;BME280;6152;48.728;9.256;2023-07-09T07:43:11;97523.06;;;27.86;71.19
12178;BME280;6152;48.728;9.256;2023-07-09T07:45:41;97527.91;;;28.18;65.77
12178;BME280;6152;48.728;9.256;2023-07-09T07:48:08;97523.75;;;28.65;64.10
12178;BME280;6152;48.728;9.256;2023-07-09T07:50:34;97516.88;;;28.83;59.54
12178;BME280;6152;48.728;9.256;2023-07-09T07:53:00;97511.16;;;28.93;60.40
12178;BME280;6152;48.728;9.256;2023-07-09T07:55:26;97514.63;;;29.28;57.66
12178;BME280;6152;48.728;9.256;2023-07-09T07:57:53;97513.28;;;29.51;55.24
12178;BME280;6152;48.728;9.256;2023-07-09T08:00:19;97517.31;;;29.95;53.50
12178;BME280;6152;48.728;9.256;2023-07-09T08:02:45;97511.53;;;30.24;52.10
12178;BME280;6152;48.728;9.256;2023-07-09T08:05:12;97510.75;;;30.43;51.54
12178;BME280;6152;48.728;9.256;2023-07-09T08:07:38;97504.66;;;30.94;48.97
12178;BME280;6152;48.728;9.256;2023-07-09T08:10:04;97501.97;;;31.51;47.19
12178;BME280;6152;48.728;9.256;2023-07-09T08:12:30;97505.22;;;31.98;43.86
12178;BME280;6152;48.728;9.256;2023-07-09T08:14:57;97511.03;;;31.95;43.39
12178;BME280;6152;48.728;9.256;2023-07-09T08:17:23;97500.84;;;32.53;42.61
12178;BME280;6152;48.728;9.256;2023-07-09T08:19:53;97498.97;;;33.15;41.68
12178;BME280;6152;48.728;9.256;2023-07-09T08:22:21;97499.63;;;33.76;41.12
12178;BME280;6152;48.728;9.256;2023-07-09T08:24:48;97498.25;;;34.15;39.60
12178;BME280;6152;48.728;9.256;2023-07-09T08:27:14;97502.84;;;34.49;37.15
12178;BME280;6152;48.728;9.256;2023-07-09T08:29:40;97498.63;;;34.65;36.96
12178;BME280;6152;48.728;9.256;2023-07-09T08:32:09;97494.56;;;35.26;35.93
12178;BME280;6152;48.728;9.256;2023-07-09T08:34:37;97492.38;;;35.79;34.64
12178;BME280;6152;48.728;9.256;2023-07-09T08:37:05;97492.91;;;36.55;33.44
12178;BME280;6152;48.728;9.256;2023-07-09T08:39:31;97493.22;;;36.80;32.20
12178;BME280;6152;48.728;9.256;2023-07-09T08:42:04;97494.13;;;37.72;31.16
12178;BME280;6152;48.728;9.256;2023-07-09T08:47:26;97487.63;;;38.27;30.29
12178;BME280;6152;48.728;9.256;2023-07-09T08:50:17;97486.16;;;38.46;29.07
12178;BME280;6152;48.728;9.256;2023-07-09T08:52:47;97485.53;;;39.23;28.08
12178;BME280;6152;48.728;9.256;2023-07-09T08:55:23;97487.38;;;39.89;27.37
12178;BME280;6152;48.728;9.256;2023-07-09T08:58:02;97493.69;;;40.15;26.59
12178;BME280;6152;48.728;9.256;2023-07-09T09:00:40;97494.78;;;40.09;26.01
12178;BME280;6152;48.728;9.256;2023-07-09T09:03:37;97485.44;;;41.01;25.01
12178;BME280;6152;48.728;9.256;2023-07-09T09:06:16;97489.25;;;42.08;24.38
12178;BME280;6152;48.728;9.256;2023-07-09T09:11:41;97495.88;;;42.70;22.79
12178;BME280;6152;48.728;9.256;2023-07-09T09:14:21;97494.63;;;42.57;22.57
12178;BME280;6152;48.728;9.256;2023-07-09T09:16:50;97484.25;;;42.20;23.18
12178;BME280;6152;48.728;9.256;2023-07-09T09:19:33;97494.13;;;42.79;22.59
12178;BME280;6152;48.728;9.256;2023-07-09T09:22:08;97499.81;;;42.88;21.99
12178;BME280;6152;48.728;9.256;2023-07-09T09:24:56;97487.16;;;44.19;21.50
12178;BME280;6152;48.728;9.256;2023-07-09T09:27:24;97485.84;;;44.62;20.04
12178;BME280;6152;48.728;9.256;2023-07-09T09:29:50;97485.75;;;44.35;20.15
12178;BME280;6152;48.728;9.256;2023-07-09T09:32:26;97480.84;;;44.18;19.60
12178;BME280;6152;48.728;9.256;2023-07-09T09:34:53;97483.88;;;45.22;19.59
12178;BME280;6152;48.728;9.256;2023-07-09T09:37:27;97484.03;;;45.67;19.14
12178;BME280;6152;48.728;9.256;2023-07-09T09:39:54;97481.66;;;46.24;18.59
12178;BME280;6152;48.728;9.256;2023-07-09T09:42:23;97485.59;;;46.84;17.79
12178;BME280;6152;48.728;9.256;2023-07-09T09:44:49;97482.13;;;47.57;16.15
12178;BME280;6152;48.728;9.256;2023-07-09T09:47:20;97473.88;;;47.75;16.08
12178;BME280;6152;48.728;9.256;2023-07-09T09:49:47;97482.63;;;47.68;16.62
12178;BME280;6152;48.728;9.256;2023-07-09T09:52:19;97479.97;;;48.66;15.30
12178;BME280;6152;48.728;9.256;2023-07-09T09:54:56;97484.69;;;48.74;15.20
12178;BME280;6152;48.728;9.256;2023-07-09T09:57:28;97478.00;;;48.75;15.19
12178;BME280;6152;48.728;9.256;2023-07-09T09:59:57;97467.84;;;48.96;15.86
12178;BME280;6152;48.728;9.256;2023-07-09T10:02:25;97467.84;;;48.07;14.55
12178;BME280;6152;48.728;9.256;2023-07-09T10:04:52;97460.78;;;47.24;16.26
12178;BME280;6152;48.728;9.256;2023-07-09T10:07:21;97460.09;;;47.92;15.72
12178;BME280;6152;48.728;9.256;2023-07-09T10:09:51;97458.91;;;48.91;14.98
12178;BME280;6152;48.728;9.256;2023-07-09T10:12:38;97457.94;;;47.80;15.77
12178;BME280;6152;48.728;9.256;2023-07-09T10:15:21;97450.91;;;47.48;15.60
12178;BME280;6152;48.728;9.256;2023-07-09T10:18:06;97448.19;;;48.26;15.71
12178;BME280;6152;48.728;9.256;2023-07-09T10:21:03;97440.72;;;47.83;14.94
12178;BME280;6152;48.728;9.256;2023-07-09T10:23:48;97437.41;;;48.50;15.49
12178;BME280;6152;48.728;9.256;2023-07-09T10:26:39;97441.44;;;46.45;15.46
12178;BME280;6152;48.728;9.256;2023-07-09T10:35:20;97440.94;;;45.98;16.02
12178;BME280;6152;48.728;9.256;2023-07-09T10:41:02;97431.09;;;47.38;15.68
12178;BME280;6152;48.728;9.256;2023-07-09T10:43:59;97428.72;;;47.88;14.40
12178;BME280;6152;48.728;9.256;2023-07-09T10:46:30;97440.56;;;48.05;14.14
12178;BME280;6152;48.728;9.256;2023-07-09T10:49:00;97433.50;;;48.51;13.68
12178;BME280;6152;48.728;9.256;2023-07-09T10:51:39;97426.81;;;48.60;13.61
12178;BME280;6152;48.728;9.256;2023-07-09T10:54:15;97424.97;;;48.73;13.74
12178;BME280;6152;48.728;9.256;2023-07-09T10:56:48;97416.06;;;48.59;13.86
12178;BME280;6152;48.728;9.256;2023-07-09T10:59:26;97415.41;;;48.71;13.55
12178;BME280;6152;48.728;9.256;2023-07-09T11:04:49;97410.72;;;48.54;13.75
12178;BME280;6152;48.728;9.256;2023-07-09T11:07:23;97409.25;;;49.53;13.63
12178;BME280;6152;48.728;9.256;2023-07-09T11:09:51;97402.47;;;49.42;13.64
12178;BME280;6152;48.728;9.256;2023-07-09T11:12:36;97413.72;;;48.32;14.20
12178;BME280;6152;48.728;9.256;2023-07-09T11:17:44;97407.25;;;48.10;14.79
12178;BME280;6152;48.728;9.256;2023-07-09T11:20:32;97402.16;;;48.85;13.02
12178;BME280;6152;48.728;9.256;2023-07-09T11:23:05;97409.06;;;49.58;12.65
12178;BME280;6152;48.728;9.256;2023-07-09T11:26:34;97402.06;;;49.93;12.92
12178;BME280;6152;48.728;9.256;2023-07-09T11:28:50;97401.44;;;50.41;12.19
12178;BME280;6152;48.728;9.256;2023-07-09T11:31:36;97393.84;;;50.05;12.80
12178;BME280;6152;48.728;9.256;2023-07-09T11:39:23;97389.56;;;50.41;12.37
12178;BME280;6152;48.728;9.256;2023-07-09T11:41:52;97392.47;;;50.81;12.37
12178;BME280;6152;48.728;9.256;2023-07-09T11:44:30;97381.72;;;51.16;11.97
12178;BME280;6152;48.728;9.256;2023-07-09T11:49:55;97388.91;;;50.23;12.04
12178;BME280;6152;48.728;9.256;2023-07-09T11:52:28;97382.66;;;51.20;11.77
12178;BME280;6152;48.728;9.256;2023-07-09T11:54:57;97387.06;;;51.61;11.76
12178;BME280;6152;48.728;9.256;2023-07-09T11:57:23;97379.94;;;49.52;12.11
12178;BME280;6152;48.728;9.256;2023-07-09T11:59:49;97373.50;;;49.69;12.19
12178;BME280;6152;48.728;9.256;2023-07-09T12:02:19;97372.00;;;49.71;12.20
12178;BME280;6152;48.728;9.256;2023-07-09T12:04:51;97375.88;;;48.70;12.95
12178;BME280;6152;48.728;9.256;2023-07-09T12:07:18;97372.84;;;47.99;13.45
12178;BME280;6152;48.728;9.256;2023-07-09T12:09:50;97373.09;;;46.55;13.69
12178;BME280;6152;48.728;9.256;2023-07-09T12:12:26;97362.97;;;44.68;15.57
12178;BME280;6152;48.728;9.256;2023-07-09T12:14:54;97364.72;;;42.68;16.70
12178;BME280;6152;48.728;9.256;2023-07-09T12:17:25;97361.75;;;42.07;17.85
12178;BME280;6152;48.728;9.256;2023-07-09T12:19:53;97368.31;;;41.72;18.03
12178;BME280;6152;48.728;9.256;2023-07-09T12:22:21;97356.31;;;41.29;17.76
12178;BME280;6152;48.728;9.256;2023-07-09T12:24:48;97357.53;;;41.13;18.90
12178;BME280;6152;48.728;9.256;2023-07-09T12:27:23;97351.75;;;40.46;18.91
12178;BME280;6152;48.728;9.256;2023-07-09T12:29:56;97357.53;;;40.24;20.05
12178;BME280;6152;48.728;9.256;2023-07-09T12:32:23;97354.03;;;39.98;19.32
12178;BME280;6152;48.728;9.256;2023-07-09T12:34:53;97343.13;;;39.83;19.94
12178;BME280;6152;48.728;9.256;2023-07-09T12:37:21;97348.31;;;38.77;19.81
12178;BME280;6152;48.728;9.256;2023-07-09T12:39:51;97346.03;;;38.49;20.91
12178;BME280;6152;48.728;9.256;2023-07-09T12:42:28;97344.53;;;37.89;20.77
12178;BME280;6152;48.728;9.256;2023-07-09T12:44:56;97343.59;;;37.73;21.09
12178;BME280;6152;48.728;9.256;2023-07-09T12:47:24;97333.63;;;37.84;21.50
12178;BME280;6152;48.728;9.256;2023-07-09T12:49:51;97343.50;;;37.63;21.37
12178;BME280;6152;48.728;9.256;2023-07-09T12:52:26;97341.88;;;37.35;21.97
12178;BME280;6152;48.728;9.256;2023-07-09T12:54:56;97340.53;;;37.38;21.92
12178;BME280;6152;48.728;9.256;2023-07-09T12:57:23;97332.66;;;37.36;22.38
12178;BME280;6152;48.728;9.256;2023-07-09T12:59:50;97329.56;;;37.28;22.17
12178;BME280;6152;48.728;9.256;2023-07-09T13:02:21;97327.69;;;37.28;22.27
12178;BME280;6152;48.728;9.256;2023-07-09T13:04:48;97324.38;;;37.21;23.22
12178;BME280;6152;48.728;9.256;2023-07-09T13:09:54;97318.31;;;36.66;22.30
12178;BME280;6152;48.728;9.256;2023-07-09T13:12:29;97312.75;;;36.34;23.23
12178;BME280;6152;48.728;9.256;2023-07-09T13:14:57;97303.59;;;36.62;22.61
12178;BME280;6152;48.728;9.256;2023-07-09T13:17:27;97312.25;;;36.37;22.78
12178;BME280;6152;48.728;9.256;2023-07-09T13:19:54;97302.22;;;36.37;23.23
12178;BME280;6152;48.728;9.256;2023-07-09T13:22:22;97290.28;;;36.38;22.65
12178;BME280;6152;48.728;9.256;2023-07-09T13:24:49;97297.28;;;36.34;24.63
12178;BME280;6152;48.728;9.256;2023-07-09T13:27:16;97288.56;;;35.94;24.54
12178;BME280;6152;48.728;9.256;2023-07-09T13:29:42;97291.13;;;35.84;24.59
12178;BME280;6152;48.728;9.256;2023-07-09T13:32:13;97284.38;;;35.86;24.18
12178;BME280;6152;48.728;9.256;2023-07-09T13:34:40;97283.66;;;35.91;23.44
12178;BME280;6152;48.728;9.256;2023-07-09T13:37:12;97293.53;;;35.64;23.66
12178;BME280;6152;48.728;9.256;2023-07-09T13:39:39;97291.47;;;35.54;23.88
12178;BME280;6152;48.728;9.256;2023-07-09T13:42:10;97285.72;;;35.34;24.13
12178;BME280;6152;48.728;9.256;2023-07-09T13:44:38;97283.06;;;35.56;23.79
12178;BME280;6152;48.728;9.256;2023-07-09T13:47:04;97284.81;;;35.62;23.99
12178;BME280;6152;48.728;9.256;2023-07-09T13:49:31;97280.38;;;35.89;24.72
12178;BME280;6152;48.728;9.256;2023-07-09T13:51:59;97277.16;;;35.92;24.24
12178;BME280;6152;48.728;9.256;2023-07-09T13:54:31;97281.97;;;36.07;24.01
12178;BME280;6152;48.728;9.256;2023-07-09T13:57:02;97280.88;;;36.24;24.57
12178;BME280;6152;48.728;9.256;2023-07-09T13:59:29;97283.06;;;36.27;24.47